createdAt,value
2023-03-07T00:00:05.210Z,57.60
2023-03-07T00:00:17.689Z,53.05
2023-03-07T00:00:29.721Z,53.85
2023-03-07T00:00:43.571Z,60.00
2023-03-07T00:00:55.898Z,56.45
2023-03-07T00:01:09.643Z,52.28
2023-03-07T00:01:22.931Z,52.75
2023-03-07T00:01:35.470Z,58.80
2023-03-07T00:01:47.848Z,53.22
2023-03-07T00:02:00.831Z,50.08
2023-03-07T00:02:13.583Z,49.55
2023-03-07T00:02:26.706Z,53.88
2023-03-07T00:02:42.271Z,52.35
2023-03-07T00:02:54.957Z,48.13
2023-03-07T00:03:07.037Z,55.55
2023-03-07T00:03:26.327Z,52.92
2023-03-07T00:03:39.978Z,58.33
2023-03-07T00:03:52.557Z,56.85
2023-03-07T00:04:05.711Z,47.85
2023-03-07T00:04:18.417Z,49.60
2023-03-07T00:04:30.680Z,49.78
2023-03-07T00:04:45.383Z,54.72
2023-03-07T00:04:57.984Z,54.05
2023-03-07T00:05:10.279Z,51.00
2023-03-07T00:05:22.611Z,49.92
2023-03-07T00:05:35.506Z,50.95
2023-03-07T00:05:49.724Z,55.60
2023-03-07T00:06:02.947Z,53.38
2023-03-07T00:06:14.978Z,47.22
2023-03-07T00:06:27.697Z,49.50
2023-03-07T00:06:41.301Z,54.88
2023-03-07T00:06:56.205Z,59.40
2023-03-07T00:07:08.097Z,62.38
2023-03-07T00:07:25.879Z,63.20
2023-03-07T00:07:39.941Z,68.22
2023-03-07T00:07:52.135Z,67.93
2023-03-07T00:08:06.835Z,68.40
2023-03-07T00:08:21.464Z,62.97
2023-03-07T00:08:34.251Z,58.75
2023-03-07T00:08:50.549Z,58.22
2023-03-07T00:09:07.396Z,59.30
2023-03-07T00:09:20.083Z,56.10
2023-03-07T00:09:32.172Z,51.83
2023-03-07T00:09:44.439Z,56.38
2023-03-07T00:09:58.137Z,54.78
2023-03-07T00:10:11.904Z,53.22
2023-03-07T00:10:33.473Z,51.95
2023-03-07T00:10:48.710Z,47.13
2023-03-07T00:11:03.698Z,46.03
2023-03-07T00:11:18.373Z,50.38
2023-03-07T00:11:31.656Z,53.00
2023-03-07T00:11:43.704Z,56.17
2023-03-07T00:11:56.356Z,53.55
2023-03-07T00:12:09.634Z,60.88
2023-03-07T00:12:22.119Z,53.33
2023-03-07T00:12:34.745Z,53.00
2023-03-07T00:12:47.584Z,51.90
2023-03-07T00:13:00.126Z,49.42
2023-03-07T00:13:12.995Z,49.40
2023-03-07T00:13:25.440Z,53.90
2023-03-07T00:13:39.464Z,55.53
2023-03-07T00:13:52.711Z,51.45
2023-03-07T00:14:07.614Z,48.35
2023-03-07T00:14:21.255Z,48.83
2023-03-07T00:14:34.596Z,50.35
2023-03-07T00:14:46.957Z,50.60
2023-03-07T00:14:59.573Z,50.47
2023-03-07T00:15:16.751Z,48.78
2023-03-07T00:15:29.463Z,52.38
2023-03-07T00:15:42.234Z,50.78
2023-03-07T00:15:54.656Z,46.67
2023-03-07T00:16:09.293Z,50.58
2023-03-07T00:16:24.033Z,53.95
2023-03-07T00:16:37.282Z,52.58
2023-03-07T00:16:51.129Z,52.15
2023-03-07T00:17:04.173Z,48.75
2023-03-07T00:17:17.981Z,49.60
2023-03-07T00:17:30.491Z,50.05
2023-03-07T00:17:43.360Z,54.45
2023-03-07T00:17:56.141Z,46.22
2023-03-07T00:18:11.355Z,45.60
2023-03-07T00:18:25.913Z,50.70
2023-03-07T00:18:38.817Z,51.10
2023-03-07T00:18:55.509Z,48.25
2023-03-07T00:19:07.851Z,48.50
2023-03-07T00:19:20.448Z,48.47
2023-03-07T00:19:32.761Z,53.50
2023-03-07T00:19:45.502Z,55.05
2023-03-07T00:19:57.727Z,52.00
2023-03-07T00:20:11.669Z,51.72
2023-03-07T00:20:23.980Z,47.85
2023-03-07T00:20:36.181Z,44.30
2023-03-07T00:20:57.136Z,45.60
2023-03-07T00:21:11.343Z,46.47
2023-03-07T00:21:23.450Z,48.33
2023-03-07T00:21:36.001Z,48.90
2023-03-07T00:21:49.240Z,49.53
2023-03-07T00:22:01.859Z,47.00
2023-03-07T00:22:14.754Z,44.45
2023-03-07T00:22:29.460Z,44.30
2023-03-07T00:22:43.967Z,43.08
2023-03-07T00:22:55.947Z,44.17
2023-03-07T00:23:08.393Z,45.40
2023-03-07T00:23:20.974Z,42.95
2023-03-07T00:23:33.292Z,44.05
2023-03-07T00:23:46.309Z,42.65
2023-03-07T00:23:58.517Z,44.60
2023-03-07T00:24:11.580Z,46.75
2023-03-07T00:24:23.659Z,47.40
2023-03-07T00:24:35.802Z,49.17
2023-03-07T00:24:48.324Z,52.63
2023-03-07T00:25:00.984Z,51.72
2023-03-07T00:25:13.987Z,52.40
2023-03-07T00:25:26.432Z,45.30
2023-03-07T00:25:38.849Z,42.30
2023-03-07T00:25:56.979Z,45.30
2023-03-07T00:26:12.567Z,47.35
2023-03-07T00:26:30.470Z,50.42
2023-03-07T00:26:42.787Z,50.47
2023-03-07T00:26:55.614Z,48.05
2023-03-07T00:27:08.342Z,47.47
2023-03-07T00:27:21.061Z,47.90
2023-03-07T00:27:34.842Z,49.67
2023-03-07T00:27:48.106Z,50.63
2023-03-07T00:28:06.975Z,49.17
2023-03-07T00:28:19.617Z,46.25
2023-03-07T00:28:33.232Z,47.15
2023-03-07T00:28:47.768Z,47.80
2023-03-07T00:29:00.190Z,47.20
2023-03-07T00:29:14.504Z,47.00
2023-03-07T00:29:28.993Z,44.33
2023-03-07T00:29:41.922Z,44.88
2023-03-07T00:30:00.940Z,46.70
2023-03-07T00:30:17.172Z,53.33
2023-03-07T00:30:29.713Z,57.40
2023-03-07T00:30:43.647Z,53.70
2023-03-07T00:30:55.744Z,47.80
2023-03-07T00:31:11.682Z,46.30
2023-03-07T00:31:25.877Z,46.67
2023-03-07T00:31:40.191Z,54.55
2023-03-07T00:31:53.035Z,54.22
2023-03-07T00:32:06.393Z,49.18
2023-03-07T00:32:20.764Z,48.10
2023-03-07T00:32:34.884Z,43.97
2023-03-07T00:32:47.251Z,44.65
2023-03-07T00:32:59.745Z,49.45
2023-03-07T00:33:12.231Z,51.42
2023-03-07T00:33:24.646Z,50.30
2023-03-07T00:33:38.628Z,47.55
2023-03-07T00:33:52.113Z,44.40
2023-03-07T00:34:05.026Z,46.28
2023-03-07T00:34:18.087Z,47.72
2023-03-07T00:34:30.651Z,46.58
2023-03-07T00:34:43.532Z,44.10
2023-03-07T00:34:58.062Z,50.83
2023-03-07T00:35:12.104Z,51.92
2023-03-07T00:35:24.336Z,46.83
2023-03-07T00:35:36.914Z,44.33
2023-03-07T00:35:56.252Z,44.38
2023-03-07T00:36:12.897Z,47.95
2023-03-07T00:36:26.681Z,47.05
2023-03-07T00:36:48.040Z,45.28
2023-03-07T00:37:01.931Z,46.38
2023-03-07T00:37:16.479Z,47.88
2023-03-07T00:37:30.729Z,45.97
2023-03-07T00:37:45.229Z,44.38
2023-03-07T00:37:57.565Z,44.78
2023-03-07T00:38:09.959Z,45.58
2023-03-07T00:38:24.328Z,47.25
2023-03-07T00:38:37.678Z,49.25
2023-03-07T00:38:55.506Z,49.05
2023-03-07T00:39:07.807Z,50.05
2023-03-07T00:39:19.877Z,49.75
2023-03-07T00:39:45.544Z,44.03
2023-03-07T00:39:57.848Z,45.15
2023-03-07T00:40:17.299Z,48.40
2023-03-07T00:40:29.854Z,44.00
2023-03-07T00:40:41.681Z,45.25
2023-03-07T00:40:57.892Z,46.55
2023-03-07T00:41:12.777Z,44.58
2023-03-07T00:41:27.964Z,44.40
2023-03-07T00:41:42.516Z,44.95
2023-03-07T00:41:58.224Z,45.35
2023-03-07T00:42:10.564Z,48.95
2023-03-07T00:42:23.027Z,47.40
2023-03-07T00:42:35.325Z,43.53
2023-03-07T00:42:47.736Z,43.25
2023-03-07T00:43:00.002Z,44.65
2023-03-07T00:43:12.826Z,47.20
2023-03-07T00:43:26.375Z,48.63
2023-03-07T00:43:39.735Z,49.45
2023-03-07T00:43:52.030Z,51.25
2023-03-07T00:44:05.149Z,48.65
2023-03-07T00:44:18.474Z,48.00
2023-03-07T00:44:33.757Z,45.08
2023-03-07T00:44:46.342Z,47.95
2023-03-07T00:45:03.328Z,46.67
2023-03-07T00:45:17.128Z,48.15
2023-03-07T00:45:30.354Z,51.05
2023-03-07T00:45:43.288Z,48.20
2023-03-07T00:45:56.401Z,46.58
2023-03-07T00:46:12.935Z,50.28
2023-03-07T00:46:27.904Z,55.53
2023-03-07T00:46:40.124Z,52.35
2023-03-07T00:46:55.488Z,50.38
2023-03-07T00:47:12.336Z,59.60
2023-03-07T00:47:26.186Z,58.17
2023-03-07T00:47:39.216Z,51.17
2023-03-07T00:47:52.892Z,52.35
2023-03-07T00:48:09.510Z,48.82
2023-03-07T00:48:34.161Z,45.92
2023-03-07T00:48:48.145Z,52.30
2023-03-07T00:49:03.818Z,53.67
2023-03-07T00:49:17.585Z,53.85
2023-03-07T00:49:30.938Z,54.08
2023-03-07T00:49:43.745Z,53.10
2023-03-07T00:49:59.545Z,52.63
2023-03-07T00:50:12.667Z,48.95
2023-03-07T00:50:26.016Z,45.65
2023-03-07T00:50:39.605Z,42.85
2023-03-07T00:50:53.418Z,43.85
2023-03-07T00:51:10.634Z,48.03
2023-03-07T00:51:24.841Z,52.38
2023-03-07T00:51:37.673Z,50.75
2023-03-07T00:51:51.585Z,48.78
2023-03-07T00:52:05.983Z,48.63
2023-03-07T00:52:18.585Z,50.28
2023-03-07T00:52:34.531Z,53.05
2023-03-07T00:52:46.768Z,50.08
2023-03-07T00:52:58.865Z,49.70
2023-03-07T00:53:13.412Z,49.35
2023-03-07T00:53:26.262Z,50.03
2023-03-07T00:53:39.819Z,49.40
2023-03-07T00:53:57.638Z,50.88
2023-03-07T00:54:11.473Z,46.95
2023-03-07T00:54:23.757Z,45.83
2023-03-07T00:54:39.070Z,45.45
2023-03-07T00:54:51.894Z,47.53
2023-03-07T00:55:04.827Z,52.70
2023-03-07T00:55:18.358Z,49.03
2023-03-07T00:55:34.851Z,44.38
2023-03-07T00:55:58.937Z,44.92
2023-03-07T00:56:14.596Z,44.08
2023-03-07T00:56:30.049Z,43.42
2023-03-07T00:56:43.526Z,47.95
2023-03-07T00:56:55.763Z,46.42
2023-03-07T00:57:08.316Z,47.22
2023-03-07T00:57:21.292Z,50.38
2023-03-07T00:57:35.516Z,47.85
2023-03-07T00:57:48.651Z,44.67
2023-03-07T00:58:01.773Z,49.40
2023-03-07T00:58:15.887Z,50.05
2023-03-07T00:58:28.958Z,45.08
2023-03-07T00:58:42.673Z,44.50
2023-03-07T00:58:55.046Z,45.80
2023-03-07T00:59:09.725Z,44.83
2023-03-07T00:59:22.523Z,45.40
2023-03-07T00:59:36.128Z,45.72
2023-03-07T00:59:48.399Z,44.60
2023-03-07T01:00:05.005Z,50.14
2023-03-07T01:00:20.147Z,56.47
2023-03-07T01:00:34.280Z,53.30
2023-03-07T01:00:48.992Z,47.72
2023-03-07T01:01:03.107Z,49.58
2023-03-07T01:01:18.281Z,49.35
2023-03-07T01:01:30.857Z,48.72
2023-03-07T01:01:48.020Z,51.83
2023-03-07T01:02:03.584Z,48.53
2023-03-07T01:02:16.538Z,45.14
2023-03-07T01:02:28.975Z,45.78
2023-03-07T01:02:41.236Z,47.65
2023-03-07T01:02:57.278Z,48.42
2023-03-07T01:03:11.922Z,48.88
2023-03-07T01:03:25.535Z,54.50
2023-03-07T01:03:38.562Z,56.17
2023-03-07T01:03:51.821Z,52.47
2023-03-07T01:04:04.320Z,52.90
2023-03-07T01:04:17.649Z,51.90
2023-03-07T01:04:31.606Z,51.90
2023-03-07T01:04:45.654Z,49.75
2023-03-07T01:04:59.204Z,48.92
2023-03-07T01:05:13.027Z,45.85
2023-03-07T01:05:28.884Z,44.50
2023-03-07T01:05:45.763Z,44.15
2023-03-07T01:06:01.985Z,42.15
2023-03-07T01:06:16.864Z,44.80
2023-03-07T01:06:31.229Z,45.95
2023-03-07T01:06:45.466Z,45.53
2023-03-07T01:06:58.119Z,46.67
2023-03-07T01:07:12.261Z,47.75
2023-03-07T01:07:25.856Z,48.00
2023-03-07T01:07:38.188Z,49.25
2023-03-07T01:07:51.455Z,53.90
2023-03-07T01:08:08.402Z,56.55
2023-03-07T01:08:26.052Z,48.35
2023-03-07T01:08:39.639Z,50.42
2023-03-07T01:08:53.135Z,52.38
2023-03-07T01:09:08.092Z,50.50
2023-03-07T01:09:20.834Z,51.22
2023-03-07T01:09:33.253Z,53.20
2023-03-07T01:09:45.672Z,49.80
2023-03-07T01:09:58.520Z,48.08
2023-03-07T01:10:12.022Z,47.67
2023-03-07T01:10:26.842Z,51.50
2023-03-07T01:10:41.008Z,49.40
2023-03-07T01:10:59.427Z,45.92
2023-03-07T01:11:15.002Z,51.38
2023-03-07T01:11:28.006Z,54.47
2023-03-07T01:11:40.891Z,53.42
2023-03-07T01:11:53.906Z,50.63
2023-03-07T01:12:07.801Z,48.47
2023-03-07T01:12:23.318Z,52.30
2023-03-07T01:12:36.627Z,56.10
2023-03-07T01:12:57.651Z,56.97
2023-03-07T01:13:12.754Z,51.35
2023-03-07T01:13:25.233Z,49.85
2023-03-07T01:13:38.604Z,49.42
2023-03-07T01:13:51.773Z,49.88
2023-03-07T01:14:05.782Z,53.33
2023-03-07T01:14:20.698Z,49.80
2023-03-07T01:14:33.318Z,48.05
2023-03-07T01:14:46.142Z,49.45
2023-03-07T01:14:58.496Z,53.17
2023-03-07T01:15:12.763Z,54.75
2023-03-07T01:15:25.620Z,57.70
2023-03-07T01:15:40.698Z,54.67
2023-03-07T01:15:55.603Z,48.85
2023-03-07T01:16:13.872Z,48.53
2023-03-07T01:16:29.281Z,52.58
2023-03-07T01:16:44.489Z,51.45
2023-03-07T01:16:56.976Z,52.50
2023-03-07T01:17:10.845Z,54.60
2023-03-07T01:17:25.527Z,55.08
2023-03-07T01:17:38.269Z,52.92
2023-03-07T01:17:51.891Z,52.58
2023-03-07T01:18:04.537Z,49.95
2023-03-07T01:18:17.444Z,52.03
2023-03-07T01:18:29.953Z,50.45
2023-03-07T01:18:42.809Z,54.00
2023-03-07T01:18:57.803Z,56.53
2023-03-07T01:19:11.477Z,48.70
2023-03-07T01:19:26.512Z,44.33
2023-03-07T01:19:42.648Z,50.03
2023-03-07T01:19:55.139Z,49.58
2023-03-07T01:20:08.894Z,49.90
2023-03-07T01:20:21.988Z,50.25
2023-03-07T01:20:35.711Z,50.35
2023-03-07T01:20:51.366Z,51.53
2023-03-07T01:21:11.157Z,50.20
2023-03-07T01:21:27.649Z,49.40
2023-03-07T01:21:43.878Z,47.60
2023-03-07T01:21:56.432Z,50.88
2023-03-07T01:22:13.954Z,51.92
2023-03-07T01:22:26.498Z,48.80
2023-03-07T01:22:40.132Z,47.63
2023-03-07T01:22:52.629Z,46.47
2023-03-07T01:23:06.482Z,47.58
2023-03-07T01:23:19.028Z,48.25
2023-03-07T01:23:31.875Z,48.38
2023-03-07T01:23:45.038Z,53.25
2023-03-07T01:23:57.691Z,51.17
2023-03-07T01:24:14.358Z,46.42
2023-03-07T01:24:27.883Z,48.35
2023-03-07T01:24:40.756Z,53.45
2023-03-07T01:24:53.486Z,52.42
2023-03-07T01:25:07.416Z,48.35
2023-03-07T01:25:19.934Z,45.45
2023-03-07T01:25:32.207Z,49.53
2023-03-07T01:25:47.319Z,49.15
2023-03-07T01:26:03.064Z,49.00
2023-03-07T01:26:22.894Z,49.70
2023-03-07T01:26:35.736Z,56.72
2023-03-07T01:26:47.877Z,55.67
2023-03-07T01:27:00.503Z,52.33
2023-03-07T01:27:13.080Z,50.58
2023-03-07T01:27:27.452Z,47.40
2023-03-07T01:27:40.004Z,46.15
2023-03-07T01:27:53.512Z,49.30
2023-03-07T01:28:06.510Z,51.03
2023-03-07T01:28:18.891Z,50.95
2023-03-07T01:28:31.911Z,52.95
2023-03-07T01:28:44.741Z,49.47
2023-03-07T01:28:59.034Z,52.80
2023-03-07T01:29:14.389Z,49.60
2023-03-07T01:29:26.976Z,47.13
2023-03-07T01:29:39.861Z,49.33
2023-03-07T01:29:52.140Z,54.80
2023-03-07T01:30:08.748Z,52.90
2023-03-07T01:30:23.016Z,52.30
2023-03-07T01:30:36.532Z,53.90
2023-03-07T01:30:58.003Z,53.63
2023-03-07T01:31:12.511Z,51.80
2023-03-07T01:31:26.781Z,47.58
2023-03-07T01:31:39.290Z,48.03
2023-03-07T01:31:54.580Z,48.42
2023-03-07T01:32:07.007Z,49.38
2023-03-07T01:32:19.181Z,52.42
2023-03-07T01:32:32.822Z,52.65
2023-03-07T01:32:45.542Z,50.95
2023-03-07T01:33:01.782Z,46.50
2023-03-07T01:33:17.109Z,49.63
2023-03-07T01:33:32.420Z,51.78
2023-03-07T01:33:47.137Z,49.20
2023-03-07T01:34:00.256Z,49.58
2023-03-07T01:34:12.582Z,51.88
2023-03-07T01:34:25.376Z,49.85
2023-03-07T01:34:37.608Z,53.08
2023-03-07T01:34:50.322Z,53.66
2023-03-07T01:35:04.804Z,54.72
2023-03-07T01:35:17.860Z,56.45
2023-03-07T01:35:30.815Z,56.25
2023-03-07T01:35:44.053Z,53.00
2023-03-07T01:35:57.521Z,52.70
2023-03-07T01:36:19.052Z,54.13
2023-03-07T01:36:37.850Z,52.22
2023-03-07T01:36:52.179Z,47.60
2023-03-07T01:37:05.015Z,49.88
2023-03-07T01:37:19.051Z,54.10
2023-03-07T01:37:32.180Z,54.58
2023-03-07T01:37:44.563Z,56.03
2023-03-07T01:37:57.526Z,56.05
2023-03-07T01:38:10.270Z,61.13
2023-03-07T01:38:23.316Z,58.05
2023-03-07T01:38:37.585Z,55.78
2023-03-07T01:38:55.000Z,56.92
2023-03-07T01:39:13.282Z,54.55
2023-03-07T01:39:35.764Z,51.13
2023-03-07T01:39:54.648Z,52.42
2023-03-07T01:40:09.297Z,52.45
2023-03-07T01:40:23.563Z,56.90
2023-03-07T01:40:39.113Z,57.85
2023-03-07T01:40:52.247Z,51.75
2023-03-07T01:41:05.557Z,49.88
2023-03-07T01:41:17.380Z,51.78
2023-03-07T01:41:32.943Z,53.60
2023-03-07T01:41:48.343Z,50.80
2023-03-07T01:42:02.187Z,52.13
2023-03-07T01:42:15.117Z,53.58
2023-03-07T01:42:30.693Z,51.80
2023-03-07T01:42:50.700Z,51.05
2023-03-07T01:43:24.705Z,54.58
2023-03-07T01:43:44.858Z,54.20
2023-03-07T01:44:04.153Z,53.92
2023-03-07T01:44:21.222Z,53.03
2023-03-07T01:45:09.567Z,52.53
2023-03-07T01:46:10.429Z,53.58
2023-03-07T01:46:34.179Z,53.65
2023-03-07T01:46:51.423Z,56.63
2023-03-07T01:47:04.036Z,58.85
2023-03-07T01:47:25.986Z,51.67
2023-03-07T01:47:40.962Z,49.30
2023-03-07T01:47:57.469Z,52.20
2023-03-07T01:48:13.108Z,53.50
2023-03-07T01:48:26.362Z,53.95
2023-03-07T01:48:40.100Z,53.70
2023-03-07T01:48:56.109Z,52.33
2023-03-07T01:49:15.680Z,49.42
2023-03-07T01:49:31.345Z,54.53
2023-03-07T01:49:48.069Z,48.53
2023-03-07T01:50:04.410Z,49.25
2023-03-07T01:50:19.264Z,56.13
2023-03-07T01:50:34.777Z,57.80
2023-03-07T01:50:47.912Z,56.70
2023-03-07T01:51:00.063Z,56.03
2023-03-07T01:51:12.291Z,52.88
2023-03-07T01:51:27.023Z,54.70
2023-03-07T01:51:43.629Z,55.72
2023-03-07T01:52:05.342Z,54.45
2023-03-07T01:52:24.952Z,51.58
2023-03-07T01:52:46.027Z,55.55
2023-03-07T01:53:29.874Z,53.58
2023-03-07T01:53:45.958Z,52.42
2023-03-07T01:54:03.039Z,56.53
2023-03-07T01:54:19.799Z,57.80
2023-03-07T01:54:40.365Z,51.97
2023-03-07T01:54:57.625Z,49.22
2023-03-07T01:55:14.434Z,49.10
2023-03-07T01:55:32.973Z,56.38
2023-03-07T01:55:56.209Z,55.63
2023-03-07T01:56:11.248Z,50.47
2023-03-07T01:56:28.970Z,48.08
2023-03-07T01:56:51.947Z,49.88
2023-03-07T01:57:05.911Z,49.58
2023-03-07T01:57:19.777Z,51.53
2023-03-07T01:57:34.506Z,49.47
2023-03-07T01:57:48.855Z,49.78
2023-03-07T01:58:07.264Z,55.17
2023-03-07T01:58:21.598Z,52.95
2023-03-07T01:58:35.066Z,50.55
2023-03-07T01:58:49.652Z,51.60
2023-03-07T01:59:06.490Z,51.90
2023-03-07T01:59:27.065Z,52.00
2023-03-07T01:59:47.863Z,59.33
2023-03-07T02:00:10.725Z,56.83
2023-03-07T02:00:27.812Z,55.72
2023-03-07T02:00:43.638Z,54.40
2023-03-07T02:00:59.238Z,50.58
2023-03-07T02:01:14.335Z,53.08
2023-03-07T02:01:29.366Z,55.72
2023-03-07T02:01:47.015Z,55.42
2023-03-07T02:02:03.888Z,52.80
2023-03-07T02:02:20.632Z,54.35
2023-03-07T02:02:35.132Z,52.35
2023-03-07T02:02:52.192Z,51.90
2023-03-07T02:03:16.265Z,49.75
2023-03-07T02:03:43.840Z,49.40
2023-03-07T02:04:06.088Z,55.75
2023-03-07T02:04:24.172Z,54.85
2023-03-07T02:04:44.756Z,51.30
2023-03-07T02:05:01.698Z,48.00
2023-03-07T02:05:17.854Z,47.42
2023-03-07T02:05:34.894Z,49.88
2023-03-07T02:05:51.712Z,49.15
2023-03-07T02:06:09.773Z,48.17
2023-03-07T02:06:24.975Z,49.80
2023-03-07T02:06:38.932Z,51.88
2023-03-07T02:06:55.273Z,50.30
2023-03-07T02:07:10.098Z,50.58
2023-03-07T02:07:28.444Z,54.85
2023-03-07T02:07:44.922Z,55.25
2023-03-07T02:08:03.210Z,51.50
2023-03-07T02:08:20.485Z,51.55
2023-03-07T02:08:35.707Z,52.20
2023-03-07T02:08:51.275Z,54.47
2023-03-07T02:09:06.490Z,53.03
2023-03-07T02:09:24.980Z,56.00
2023-03-07T02:09:38.642Z,55.58
2023-03-07T02:09:53.212Z,54.88
2023-03-07T02:10:07.975Z,54.03
2023-03-07T02:10:23.452Z,51.60
2023-03-07T02:10:45.183Z,51.28
2023-03-07T02:11:00.262Z,53.33
2023-03-07T02:11:12.489Z,52.17
2023-03-07T02:11:31.977Z,53.90
2023-03-07T02:11:46.197Z,63.38
2023-03-07T02:12:00.346Z,58.15
2023-03-07T02:12:14.162Z,53.28
2023-03-07T02:12:27.046Z,61.85
2023-03-07T02:12:41.043Z,59.28
2023-03-07T02:12:55.369Z,52.72
2023-03-07T02:13:08.319Z,51.95
2023-03-07T02:13:20.552Z,54.30
2023-03-07T02:13:32.886Z,52.90
2023-03-07T02:13:44.972Z,55.83
2023-03-07T02:13:57.997Z,53.92
2023-03-07T02:14:10.772Z,51.65
2023-03-07T02:14:23.818Z,49.90
2023-03-07T02:14:39.212Z,54.67
2023-03-07T02:14:52.147Z,52.88
2023-03-07T02:15:06.238Z,56.03
2023-03-07T02:15:18.911Z,55.35
2023-03-07T02:15:37.911Z,51.20
2023-03-07T02:15:51.971Z,51.78
2023-03-07T02:16:07.908Z,50.95
2023-03-07T02:16:21.025Z,52.20
2023-03-07T02:16:33.323Z,55.58
2023-03-07T02:16:46.496Z,54.92
2023-03-07T02:16:59.644Z,51.97
2023-03-07T02:17:12.142Z,48.92
2023-03-07T02:17:25.879Z,48.03
2023-03-07T02:17:40.619Z,47.72
2023-03-07T02:17:57.626Z,47.60
2023-03-07T02:18:14.230Z,51.13
2023-03-07T02:18:30.483Z,55.95
2023-03-07T02:18:50.560Z,55.83
2023-03-07T02:19:03.951Z,55.30
2023-03-07T02:19:28.814Z,55.20
2023-03-07T02:19:53.942Z,54.25
2023-03-07T02:20:29.816Z,57.08
2023-03-07T02:20:49.037Z,51.17
2023-03-07T02:21:10.349Z,50.13
2023-03-07T02:21:33.396Z,46.97
2023-03-07T02:21:54.058Z,52.35
2023-03-07T02:22:11.682Z,53.20
2023-03-07T02:22:27.235Z,53.55
2023-03-07T02:22:40.503Z,49.50
2023-03-07T02:22:54.523Z,46.97
2023-03-07T02:23:08.752Z,48.92
2023-03-07T02:23:32.416Z,53.03
2023-03-07T02:23:50.627Z,52.60
2023-03-07T02:24:12.673Z,51.25
2023-03-07T02:24:32.213Z,56.80
2023-03-07T02:24:51.265Z,56.40
2023-03-07T02:25:13.621Z,50.78
2023-03-07T02:25:31.796Z,52.58
2023-03-07T02:25:49.614Z,51.28
2023-03-07T02:26:07.809Z,49.65
2023-03-07T02:26:29.390Z,51.47
2023-03-07T02:26:45.280Z,48.47
2023-03-07T02:26:58.585Z,55.10
2023-03-07T02:27:11.788Z,55.08
2023-03-07T02:27:25.874Z,49.85
2023-03-07T02:27:40.241Z,49.58
2023-03-07T02:27:55.727Z,49.33
2023-03-07T02:28:10.376Z,51.83
2023-03-07T02:28:22.979Z,53.33
2023-03-07T02:28:35.965Z,53.00
2023-03-07T02:28:48.752Z,51.33
2023-03-07T02:29:02.713Z,54.58
2023-03-07T02:29:17.762Z,55.60
2023-03-07T02:29:32.671Z,48.88
2023-03-07T02:29:45.031Z,52.15
2023-03-07T02:29:58.467Z,54.95
2023-03-07T02:30:12.604Z,55.38
2023-03-07T02:30:25.406Z,49.90
2023-03-07T02:30:54.016Z,48.47
2023-03-07T02:31:09.046Z,49.22
2023-03-07T02:31:23.208Z,47.75
2023-03-07T02:31:36.419Z,51.55
2023-03-07T02:31:49.477Z,55.40
2023-03-07T02:32:02.265Z,60.28
2023-03-07T02:32:14.694Z,57.47
2023-03-07T02:32:27.170Z,52.20
2023-03-07T02:32:39.578Z,51.92
2023-03-07T02:32:51.935Z,49.92
2023-03-07T02:33:04.447Z,48.42
2023-03-07T02:33:16.984Z,47.67
2023-03-07T02:33:29.823Z,51.65
2023-03-07T02:33:46.316Z,52.35
2023-03-07T02:33:58.867Z,51.28
2023-03-07T02:34:19.913Z,49.20
2023-03-07T02:34:34.800Z,56.63
2023-03-07T02:34:55.604Z,57.88
2023-03-07T02:35:14.903Z,53.92
2023-03-07T02:35:30.762Z,56.03
2023-03-07T02:35:47.969Z,54.00
2023-03-07T02:36:03.680Z,53.67
2023-03-07T02:36:22.557Z,51.92
2023-03-07T02:37:01.584Z,48.90
2023-03-07T02:37:19.723Z,47.03
2023-03-07T02:37:39.188Z,46.58
2023-03-07T02:37:55.195Z,46.83
2023-03-07T02:38:07.626Z,49.60
2023-03-07T02:38:19.615Z,53.67
2023-03-07T02:38:39.204Z,56.58
2023-03-07T02:38:54.910Z,52.33
2023-03-07T02:39:10.029Z,52.55
2023-03-07T02:39:23.967Z,52.28
2023-03-07T02:39:42.446Z,51.35
2023-03-07T02:39:56.684Z,49.33
2023-03-07T02:40:14.376Z,49.15
2023-03-07T02:40:29.707Z,49.88
2023-03-07T02:40:44.527Z,50.63
2023-03-07T02:40:57.484Z,53.58
2023-03-07T02:41:15.675Z,54.05
2023-03-07T02:41:32.012Z,46.95
2023-03-07T02:41:50.175Z,49.83
2023-03-07T02:42:14.463Z,52.10
2023-03-07T02:42:37.971Z,50.33
2023-03-07T02:42:58.172Z,55.17
2023-03-07T02:43:11.005Z,52.90
2023-03-07T02:43:26.225Z,50.00
2023-03-07T02:43:39.430Z,48.63
2023-03-07T02:43:54.361Z,50.08
2023-03-07T02:44:08.564Z,50.53
2023-03-07T02:44:21.919Z,48.15
2023-03-07T02:44:36.171Z,49.72
2023-03-07T02:44:56.036Z,56.83
2023-03-07T02:45:11.922Z,54.90
2023-03-07T02:45:30.601Z,50.85
2023-03-07T02:45:44.197Z,53.40
2023-03-07T02:45:56.858Z,53.65
2023-03-07T02:46:09.753Z,53.08
2023-03-07T02:46:22.127Z,61.17
2023-03-07T02:46:37.791Z,63.15
2023-03-07T02:46:50.365Z,52.97
2023-03-07T02:47:02.904Z,54.17
2023-03-07T02:47:15.524Z,54.13
2023-03-07T02:47:28.773Z,55.22
2023-03-07T02:47:42.618Z,56.63
2023-03-07T02:47:56.123Z,56.90
2023-03-07T02:48:08.244Z,54.50
2023-03-07T02:48:20.759Z,56.03
2023-03-07T02:48:32.865Z,54.50
2023-03-07T02:48:47.543Z,47.72
2023-03-07T02:49:00.420Z,47.35
2023-03-07T02:49:14.210Z,49.55
2023-03-07T02:49:27.018Z,51.42
2023-03-07T02:49:39.632Z,48.30
2023-03-07T02:49:52.166Z,51.97
2023-03-07T02:50:06.769Z,54.08
2023-03-07T02:50:23.048Z,48.42
2023-03-07T02:50:38.844Z,45.88
2023-03-07T02:50:51.419Z,49.80
2023-03-07T02:51:03.929Z,53.28
2023-03-07T02:51:16.036Z,51.08
2023-03-07T02:51:30.876Z,48.40
2023-03-07T02:51:43.024Z,53.55
2023-03-07T02:51:55.556Z,54.17
2023-03-07T02:52:09.637Z,53.70
2023-03-07T02:52:22.491Z,47.13
2023-03-07T02:52:35.806Z,50.20
2023-03-07T02:52:48.261Z,50.22
2023-03-07T02:53:00.917Z,48.65
2023-03-07T02:53:13.185Z,46.72
2023-03-07T02:53:25.022Z,45.85
2023-03-07T02:53:37.820Z,50.92
2023-03-07T02:53:50.184Z,56.15
2023-03-07T02:54:03.046Z,51.47
2023-03-07T02:54:16.894Z,53.97
2023-03-07T02:54:29.601Z,51.60
2023-03-07T02:54:43.158Z,51.92
2023-03-07T02:54:55.308Z,55.55
2023-03-07T02:55:09.584Z,55.47
2023-03-07T02:55:25.579Z,52.53
2023-03-07T02:55:44.356Z,47.78
2023-03-07T02:55:57.013Z,47.33
2023-03-07T02:56:09.969Z,47.45
2023-03-07T02:56:22.572Z,51.53
2023-03-07T02:56:35.706Z,53.95
2023-03-07T02:56:49.410Z,53.15
2023-03-07T02:57:01.773Z,49.05
2023-03-07T02:57:14.548Z,49.53
2023-03-07T02:57:29.539Z,48.58
2023-03-07T02:57:43.944Z,49.53
2023-03-07T02:57:57.545Z,56.50
2023-03-07T02:58:09.689Z,55.47
2023-03-07T02:58:21.558Z,56.35
2023-03-07T02:58:34.450Z,52.22
2023-03-07T02:58:49.238Z,50.20
2023-03-07T02:59:04.065Z,53.08
2023-03-07T02:59:16.855Z,53.30
2023-03-07T02:59:29.114Z,52.55
2023-03-07T02:59:41.534Z,54.92
2023-03-07T02:59:53.894Z,56.35
2023-03-07T03:00:07.905Z,53.55
2023-03-07T03:00:21.148Z,53.95
2023-03-07T03:00:37.890Z,56.72
2023-03-07T03:00:50.403Z,59.42
2023-03-07T03:01:03.660Z,57.53
2023-03-07T03:01:18.176Z,53.92
2023-03-07T03:01:31.775Z,53.00
2023-03-07T03:01:43.963Z,49.63
2023-03-07T03:01:58.055Z,48.00
2023-03-07T03:02:12.875Z,52.58
2023-03-07T03:02:26.779Z,57.25
2023-03-07T03:02:39.051Z,57.17
2023-03-07T03:02:51.782Z,57.72
2023-03-07T03:03:06.071Z,58.47
2023-03-07T03:03:19.600Z,59.90
2023-03-07T03:03:35.865Z,53.20
2023-03-07T03:03:48.565Z,56.45
2023-03-07T03:04:00.919Z,60.85
2023-03-07T03:04:14.723Z,59.00
2023-03-07T03:04:28.253Z,53.35
2023-03-07T03:04:41.162Z,51.17
2023-03-07T03:04:54.887Z,49.38
2023-03-07T03:05:10.385Z,51.38
2023-03-07T03:05:23.039Z,52.97
2023-03-07T03:05:38.017Z,56.15
2023-03-07T03:05:50.333Z,56.78
2023-03-07T03:06:04.607Z,53.33
2023-03-07T03:06:17.395Z,51.22
2023-03-07T03:06:30.174Z,55.55
2023-03-07T03:06:45.312Z,68.43
2023-03-07T03:06:57.856Z,68.43
2023-03-07T03:07:10.168Z,58.65
2023-03-07T03:07:22.373Z,59.47
2023-03-07T03:07:34.553Z,63.33
2023-03-07T03:07:48.228Z,63.25
2023-03-07T03:08:01.639Z,58.28
2023-03-07T03:08:15.818Z,53.42
2023-03-07T03:08:28.518Z,55.05
2023-03-07T03:08:40.683Z,53.92
2023-03-07T03:08:53.273Z,56.83
2023-03-07T03:09:05.810Z,61.50
2023-03-07T03:09:18.718Z,57.45
2023-03-07T03:09:31.776Z,55.42
2023-03-07T03:09:44.463Z,54.63
2023-03-07T03:09:56.438Z,55.78
2023-03-07T03:10:09.719Z,51.90
2023-03-07T03:10:23.636Z,60.05
2023-03-07T03:10:35.674Z,61.38